createdAt,value
2018-02-11T00:03:40.233Z,83.60
2018-02-11T00:08:45.464Z,83.50
2018-02-11T00:13:51.656Z,83.40
2018-02-11T00:18:58.002Z,83.40
2018-02-11T00:29:36.303Z,83.60
2018-02-11T00:34:43.551Z,83.50
2018-02-11T00:39:48.036Z,83.60
2018-02-11T00:44:53.975Z,83.60
2018-02-11T00:49:58.582Z,83.50
2018-02-11T00:55:02.624Z,83.60
2018-02-11T01:00:10.672Z,83.40
2018-02-11T01:05:24.925Z,83.80
2018-02-11T01:10:35.205Z,83.60
2018-02-11T01:15:42.869Z,83.30
2018-02-11T01:20:45.446Z,83.40
2018-02-11T01:25:55.625Z,83.80
2018-02-11T01:31:07.227Z,83.80
2018-02-11T01:36:17.621Z,83.70
2018-02-11T01:41:23.507Z,83.90
2018-02-11T01:52:12.849Z,83.90
2018-02-11T01:57:21.530Z,83.50
2018-02-11T02:02:25.287Z,83.80
2018-02-11T02:07:39.870Z,83.40
2018-02-11T02:12:51.004Z,83.50
2018-02-11T02:17:55.193Z,83.60
2018-02-11T02:23:00.324Z,83.40
2018-02-11T02:28:05.967Z,83.70
2018-02-11T02:38:23.478Z,83.60
2018-02-11T02:43:30.430Z,83.40
2018-02-11T02:48:38.054Z,83.60
2018-02-11T02:59:05.385Z,83.60
2018-02-11T03:04:12.612Z,83.60
2018-02-11T03:09:20.343Z,83.50
2018-02-11T03:14:25.863Z,83.40
2018-02-11T03:19:31.087Z,83.30
2018-02-11T03:24:42.934Z,83.30
2018-02-11T03:29:51.119Z,83.40
2018-02-11T03:34:58.821Z,83.20
2018-02-11T03:40:04.971Z,83.40
2018-02-11T03:45:09.505Z,83.10
2018-02-11T03:50:19.183Z,83.00
2018-02-11T03:55:25.073Z,83.40
2018-02-11T04:00:45.629Z,83.30
2018-02-11T04:05:53.201Z,83.30
2018-02-11T04:10:59.752Z,83.60
2018-02-11T04:16:08.309Z,83.30
2018-02-11T04:21:14.427Z,83.50
2018-02-11T04:26:22.824Z,83.30
2018-02-11T04:31:30.640Z,83.20
2018-02-11T04:36:36.474Z,83.80
2018-02-11T04:41:41.017Z,83.70
2018-02-11T04:46:49.700Z,83.80
2018-02-11T04:57:06.627Z,83.80
2018-02-11T05:02:10.799Z,83.50
2018-02-11T05:07:17.059Z,84.50
2018-02-11T05:12:22.329Z,83.90
2018-02-11T05:17:25.846Z,84.10
2018-02-11T05:22:29.879Z,83.70
2018-02-11T05:27:33.871Z,83.60
2018-02-11T05:32:38.769Z,84.10
2018-02-11T05:37:46.300Z,83.80
2018-02-11T05:42:51.884Z,84.30
2018-02-11T05:47:55.244Z,84.10
2018-02-11T05:53:03.765Z,83.70
2018-02-11T05:58:18.318Z,83.80
2018-02-11T06:03:25.209Z,83.90
2018-02-11T06:08:29.762Z,83.90
2018-02-11T06:13:36.550Z,83.70
2018-02-11T06:18:50.407Z,83.90
2018-02-11T06:23:54.746Z,83.90
2018-02-11T06:29:00.056Z,83.50
2018-02-11T06:34:09.687Z,83.50
2018-02-11T06:39:17.183Z,83.90
2018-02-11T06:44:20.858Z,83.90
2018-02-11T06:49:24.053Z,83.60
2018-02-11T06:54:30.546Z,83.50
2018-02-11T06:59:37.253Z,83.70
2018-02-11T07:04:51.747Z,83.50
2018-02-11T07:09:56.664Z,83.70
2018-02-11T07:15:04.502Z,83.40
2018-02-11T07:20:11.363Z,83.40
2018-02-11T07:25:16.245Z,83.30
2018-02-11T07:30:26.227Z,83.40
2018-02-11T07:35:30.422Z,83.40
2018-02-11T07:40:42.584Z,83.10
2018-02-11T07:45:48.021Z,83.20
2018-02-11T07:50:57.912Z,83.10
2018-02-11T07:56:03.684Z,82.90
2018-02-11T08:01:13.732Z,82.60
2018-02-11T08:06:20.855Z,82.70
2018-02-11T08:11:27.070Z,82.60
2018-02-11T08:16:33.886Z,82.80
2018-02-11T08:26:50.660Z,83.00
2018-02-11T08:31:59.797Z,83.30
2018-02-11T08:47:33.149Z,80.40
2018-02-11T08:52:41.398Z,81.30
2018-02-11T08:57:53.984Z,80.90
2018-02-11T09:03:01.437Z,80.70
2018-02-11T09:08:10.503Z,81.60
2018-02-11T09:18:24.530Z,79.70
2018-02-11T09:23:30.127Z,79.40
2018-02-11T09:28:49.799Z,79.70
2018-02-11T09:34:14.673Z,77.20
2018-02-11T09:44:38.196Z,80.20
2018-02-11T09:49:45.692Z,80.20
2018-02-11T10:06:27.179Z,78.60
2018-02-11T10:11:38.786Z,77.50
2018-02-11T10:22:31.639Z,77.20
2018-02-11T10:40:11.421Z,77.60
2018-02-11T10:45:15.054Z,76.10
2018-02-11T10:50:35.252Z,77.30
2018-02-11T10:55:49.176Z,75.60
2018-02-11T11:00:57.110Z,76.60
2018-02-11T11:06:13.261Z,76.00
2018-02-11T11:12:02.261Z,75.90
2018-02-11T11:17:14.044Z,77.60
2018-02-11T11:46:17.547Z,76.60
2018-02-11T12:03:55.000Z,76.90
2018-02-11T12:09:22.570Z,77.20
2018-02-11T12:20:25.064Z,77.10
2018-02-11T12:25:42.637Z,77.80
2018-02-11T12:36:49.120Z,77.30
2018-02-11T13:14:21.125Z,78.50
2018-02-11T13:24:54.771Z,78.90
2018-02-11T13:30:04.304Z,78.80
2018-02-11T13:35:21.598Z,78.90
2018-02-11T13:40:41.661Z,80.10
2018-02-11T13:51:13.321Z,79.60
2018-02-11T14:01:36.663Z,79.90
2018-02-11T14:12:22.566Z,80.20
2018-02-11T14:17:31.752Z,80.20
2018-02-11T14:22:38.464Z,80.20
2018-02-11T14:27:51.722Z,80.30
2018-02-11T14:33:05.064Z,80.40
2018-02-11T14:38:31.509Z,80.30
2018-02-11T14:49:04.752Z,80.60
2018-02-11T15:18:37.021Z,80.50
2018-02-11T15:35:47.692Z,81.00
2018-02-11T15:46:28.325Z,81.10
2018-02-11T15:51:42.046Z,81.10
2018-02-11T15:57:27.242Z,81.00
2018-02-11T16:08:22.391Z,81.60
2018-02-11T16:19:08.919Z,81.40
2018-02-11T16:25:16.579Z,81.60
2018-02-11T16:35:56.942Z,82.20
2018-02-11T16:41:09.359Z,81.70
2018-02-11T16:46:17.436Z,82.00
2018-02-11T16:51:30.804Z,82.20
2018-02-11T17:02:00.995Z,82.30
2018-02-11T17:07:30.944Z,82.90
2018-02-11T17:51:09.872Z,83.60
2018-02-11T17:56:22.540Z,83.50
2018-02-11T18:01:32.702Z,83.30
2018-02-11T18:06:42.186Z,83.30
2018-02-11T18:11:51.001Z,83.10
2018-02-11T18:17:06.525Z,83.00
2018-02-11T18:22:09.130Z,82.90
2018-02-11T18:27:28.514Z,83.20
2018-02-11T18:46:19.479Z,83.40
2018-02-11T18:51:38.421Z,83.90
2018-02-11T19:02:14.249Z,83.70
2018-02-11T19:07:29.922Z,83.80
2018-02-11T19:22:10.548Z,84.00
2018-02-11T19:27:22.429Z,84.00
2018-02-11T19:32:41.319Z,84.30
2018-02-11T19:37:55.985Z,84.20
2018-02-11T19:43:01.721Z,84.30
2018-02-11T19:48:08.512Z,84.30
2018-02-11T19:58:38.560Z,84.30
2018-02-11T20:03:52.478Z,84.50
2018-02-11T20:30:08.443Z,84.70
2018-02-11T20:46:16.780Z,84.90
2018-02-11T20:51:29.705Z,84.80
2018-02-11T20:56:42.047Z,85.10
2018-02-11T21:07:43.738Z,84.90
2018-02-11T21:13:02.846Z,85.40
2018-02-11T21:18:15.205Z,86.30
2018-02-11T21:23:32.470Z,86.00
2018-02-11T21:28:38.965Z,86.50
2018-02-11T21:33:55.676Z,86.30
2018-02-11T21:39:10.962Z,86.00
2018-02-11T21:44:21.128Z,85.80
2018-02-11T21:49:26.147Z,86.00
2018-02-11T21:54:39.414Z,85.80
2018-02-11T21:59:47.085Z,85.70
2018-02-11T22:04:57.229Z,85.70
2018-02-11T22:10:05.737Z,86.10
2018-02-11T22:20:55.187Z,85.80
2018-02-11T22:26:20.601Z,86.60
2018-02-11T22:31:37.678Z,86.50
2018-02-11T22:36:45.003Z,86.60
2018-02-11T22:47:50.564Z,86.40
2018-02-11T22:54:04.908Z,85.90
2018-02-11T22:59:23.509Z,86.10
2018-02-11T23:05:09.150Z,85.70
2018-02-11T23:10:30.361Z,85.20
2018-02-11T23:32:14.781Z,85.10
2018-02-11T23:37:34.894Z,84.90
2018-02-11T23:42:44.895Z,85.00
2018-02-11T23:47:53.280Z,85.00
2018-02-11T23:53:12.506Z,84.80
